createdAt,value
2023-03-31T00:02:02.222Z,15.50
2023-03-31T00:04:53.094Z,18.37
2023-03-31T00:07:40.647Z,11.03
2023-03-31T00:10:34.980Z,13.07
2023-03-31T00:13:22.358Z,12.47
2023-03-31T00:16:10.617Z,13.13
2023-03-31T00:18:58.853Z,17.33
2023-03-31T00:21:47.594Z,19.27
2023-03-31T00:24:35.617Z,16.13
2023-03-31T00:27:23.104Z,17.13
2023-03-31T00:30:11.235Z,17.10
2023-03-31T00:32:58.690Z,16.10
2023-03-31T00:35:46.267Z,13.70
2023-03-31T00:38:34.271Z,16.83
2023-03-31T00:41:22.582Z,15.73
2023-03-31T00:44:13.184Z,15.80
2023-03-31T00:47:18.175Z,14.23
2023-03-31T00:50:12.293Z,18.43
2023-03-31T00:53:02.012Z,20.57
2023-03-31T00:55:51.559Z,21.50
2023-03-31T00:58:43.987Z,19.80
2023-03-31T01:01:32.055Z,24.37
2023-03-31T01:04:22.807Z,24.67
2023-03-31T01:07:25.630Z,20.97
2023-03-31T01:10:14.028Z,23.47
2023-03-31T01:13:01.549Z,25.30
2023-03-31T01:15:48.965Z,22.87
2023-03-31T01:18:36.739Z,23.03
2023-03-31T01:21:25.892Z,15.17
2023-03-31T01:24:31.886Z,26.53
2023-03-31T01:27:22.084Z,20.57
2023-03-31T01:30:23.593Z,20.17
2023-03-31T01:33:20.062Z,22.73
2023-03-31T01:36:26.122Z,22.97
2023-03-31T01:39:16.392Z,29.33
2023-03-31T01:42:10.158Z,17.20
2023-03-31T01:45:12.231Z,23.30
2023-03-31T01:47:59.679Z,23.03
2023-03-31T01:50:58.060Z,15.47
2023-03-31T01:54:00.610Z,20.43
2023-03-31T01:56:52.210Z,23.43
2023-03-31T01:59:43.922Z,17.43
2023-03-31T02:02:33.501Z,20.70
2023-03-31T02:05:22.613Z,16.03
2023-03-31T02:08:15.755Z,17.50
2023-03-31T02:11:03.594Z,17.47
2023-03-31T02:13:52.588Z,20.67
2023-03-31T02:16:41.933Z,17.13
2023-03-31T02:19:32.534Z,19.90
2023-03-31T02:22:22.001Z,16.10
2023-03-31T02:25:11.909Z,15.53
2023-03-31T02:28:02.602Z,22.87
2023-03-31T02:30:52.859Z,25.03
2023-03-31T02:33:40.273Z,18.10
2023-03-31T02:36:27.780Z,18.23
2023-03-31T02:39:17.885Z,18.97
2023-03-31T02:42:07.477Z,20.43
2023-03-31T02:44:55.589Z,23.77
2023-03-31T02:47:43.094Z,20.13
2023-03-31T02:50:34.392Z,18.00
2023-03-31T02:53:27.415Z,19.83
2023-03-31T02:56:15.296Z,19.40
2023-03-31T02:59:11.547Z,21.43
2023-03-31T03:02:05.277Z,18.20
2023-03-31T03:04:52.671Z,17.97
2023-03-31T03:07:46.366Z,16.20
2023-03-31T03:10:33.795Z,15.03
2023-03-31T03:13:29.189Z,17.70
2023-03-31T03:16:24.563Z,14.20
2023-03-31T03:19:18.789Z,12.53
2023-03-31T03:22:08.818Z,21.60
2023-03-31T03:24:56.828Z,11.97
2023-03-31T03:27:44.607Z,22.23
2023-03-31T03:30:32.064Z,15.90
2023-03-31T03:33:19.641Z,16.10
2023-03-31T03:36:07.718Z,20.00
2023-03-31T03:38:55.730Z,17.47
2023-03-31T03:41:43.166Z,19.17
2023-03-31T03:44:31.063Z,20.50
2023-03-31T03:47:18.457Z,18.73
2023-03-31T03:50:06.457Z,16.80
2023-03-31T03:52:53.858Z,16.53
2023-03-31T03:55:41.738Z,24.57
2023-03-31T03:58:29.117Z,16.13
2023-03-31T04:01:16.797Z,22.23
2023-03-31T04:04:04.369Z,24.17
2023-03-31T04:06:51.811Z,17.80
2023-03-31T04:09:39.346Z,16.87
2023-03-31T04:12:26.757Z,24.97
2023-03-31T04:15:14.428Z,18.47
2023-03-31T04:18:01.949Z,20.13
2023-03-31T04:21:03.817Z,22.77
2023-03-31T04:23:58.843Z,18.60
2023-03-31T04:26:46.407Z,17.27
2023-03-31T04:29:34.122Z,19.33
2023-03-31T04:32:22.293Z,21.13
2023-03-31T04:35:09.815Z,20.23
2023-03-31T04:38:00.408Z,19.13
2023-03-31T04:40:48.832Z,20.23
2023-03-31T04:43:36.286Z,18.27
2023-03-31T04:46:23.981Z,19.30
2023-03-31T04:49:11.466Z,20.90
2023-03-31T04:51:58.883Z,19.77
2023-03-31T04:54:46.271Z,22.90
2023-03-31T04:57:33.775Z,24.03
2023-03-31T05:00:21.686Z,24.77
2023-03-31T05:03:09.936Z,18.70
2023-03-31T05:05:57.426Z,17.80
2023-03-31T05:08:45.434Z,24.97
2023-03-31T05:11:32.863Z,21.27
2023-03-31T05:14:20.997Z,19.97
2023-03-31T05:17:08.466Z,20.53
2023-03-31T05:19:55.823Z,20.63
2023-03-31T05:22:44.147Z,19.60
2023-03-31T05:25:33.420Z,26.50
2023-03-31T05:28:20.803Z,20.63
2023-03-31T05:31:08.838Z,22.23
2023-03-31T05:33:56.336Z,33.20
2023-03-31T05:36:43.709Z,89.80
2023-03-31T05:39:32.989Z,76.27
2023-03-31T05:42:21.427Z,74.23
2023-03-31T05:45:10.224Z,67.73
2023-03-31T05:47:57.650Z,23.37
2023-03-31T05:50:45.270Z,20.50
2023-03-31T05:53:33.680Z,21.23
2023-03-31T05:56:22.093Z,26.83
2023-03-31T05:59:09.515Z,19.40
2023-03-31T06:01:57.088Z,24.27
2023-03-31T06:04:44.608Z,20.53
2023-03-31T06:07:32.030Z,26.37
2023-03-31T06:10:19.430Z,22.03
2023-03-31T06:13:06.809Z,18.60
2023-03-31T06:15:55.023Z,24.53
2023-03-31T06:18:42.466Z,22.77
2023-03-31T06:21:29.844Z,24.00
2023-03-31T06:24:17.292Z,21.70
2023-03-31T06:27:04.692Z,23.33
2023-03-31T06:29:52.319Z,24.67
2023-03-31T06:32:39.765Z,29.27
2023-03-31T06:35:27.280Z,30.05
2023-03-31T06:38:14.737Z,21.00
2023-03-31T06:41:02.354Z,24.90
2023-03-31T06:43:50.211Z,18.70
2023-03-31T06:46:37.809Z,20.07
2023-03-31T06:49:25.477Z,26.23
2023-03-31T06:52:12.960Z,22.40
2023-03-31T06:55:00.658Z,23.70
2023-03-31T06:57:48.051Z,32.53
2023-03-31T07:00:35.557Z,34.83
2023-03-31T07:03:25.004Z,24.50
2023-03-31T07:06:12.984Z,20.47
2023-03-31T07:09:00.399Z,21.43
2023-03-31T07:11:47.868Z,20.27
2023-03-31T07:14:35.393Z,19.50
2023-03-31T07:17:25.435Z,20.10
2023-03-31T07:20:17.763Z,18.00
2023-03-31T07:23:06.181Z,16.63
2023-03-31T07:25:53.732Z,17.00
2023-03-31T07:28:41.515Z,16.67
2023-03-31T07:31:29.739Z,19.57
2023-03-31T07:34:17.250Z,18.57
2023-03-31T07:37:04.637Z,18.93
2023-03-31T07:39:52.058Z,16.40
2023-03-31T07:42:39.577Z,16.60
2023-03-31T07:45:27.933Z,16.17
2023-03-31T07:48:15.662Z,16.77
2023-03-31T07:51:03.342Z,22.65
2023-03-31T07:53:52.295Z,19.08
2023-03-31T07:56:40.019Z,21.03
2023-03-31T07:59:27.383Z,15.73
2023-03-31T08:02:16.498Z,12.70
2023-03-31T08:05:04.224Z,12.67
2023-03-31T08:07:51.855Z,14.37
2023-03-31T08:10:39.253Z,15.53
2023-03-31T08:13:27.205Z,13.70
2023-03-31T08:16:14.699Z,12.37
2023-03-31T08:19:02.417Z,12.03
2023-03-31T08:21:49.865Z,13.70
2023-03-31T08:24:37.242Z,15.47
2023-03-31T08:27:26.068Z,13.10
2023-03-31T08:30:13.900Z,14.47
2023-03-31T08:33:02.122Z,13.13
2023-03-31T08:35:49.712Z,26.97
2023-03-31T08:38:39.018Z,13.53
2023-03-31T08:41:36.598Z,14.13
2023-03-31T08:44:39.193Z,13.07
2023-03-31T08:47:27.989Z,11.40
2023-03-31T08:50:17.826Z,10.27
2023-03-31T08:53:11.789Z,13.43
2023-03-31T08:56:00.156Z,11.03
2023-03-31T08:58:49.635Z,11.63
2023-03-31T09:01:55.751Z,12.10
2023-03-31T09:04:59.565Z,8.67
2023-03-31T09:07:55.971Z,9.80
2023-03-31T09:11:03.792Z,11.00
2023-03-31T09:13:54.230Z,8.07
2023-03-31T09:16:41.725Z,8.03
2023-03-31T09:19:34.122Z,8.17
2023-03-31T09:22:27.643Z,11.37
2023-03-31T09:25:28.981Z,11.60
2023-03-31T09:28:24.295Z,12.87
2023-03-31T09:31:16.796Z,11.10
2023-03-31T09:34:13.368Z,8.33
2023-03-31T09:37:00.799Z,8.07
2023-03-31T09:39:48.226Z,10.33
2023-03-31T09:42:36.402Z,7.57
2023-03-31T09:45:23.899Z,9.90
2023-03-31T09:48:13.701Z,5.00
2023-03-31T09:51:01.935Z,9.10
2023-03-31T09:54:08.217Z,6.03
2023-03-31T09:56:56.189Z,9.40
2023-03-31T09:59:45.916Z,7.83
2023-03-31T10:02:33.899Z,13.60
2023-03-31T10:05:24.302Z,11.03
2023-03-31T10:08:17.550Z,7.20
2023-03-31T10:11:05.212Z,9.07
2023-03-31T10:14:13.379Z,9.70
2023-03-31T10:17:04.548Z,7.67
2023-03-31T10:19:57.722Z,7.00
2023-03-31T10:22:45.651Z,6.90
2023-03-31T10:25:34.608Z,9.67
2023-03-31T10:28:22.818Z,5.07
2023-03-31T10:31:11.451Z,6.43
2023-03-31T10:33:59.748Z,6.27
2023-03-31T10:36:48.170Z,6.00
2023-03-31T10:39:35.682Z,7.43
2023-03-31T10:42:23.350Z,6.20
2023-03-31T10:45:29.686Z,7.93
2023-03-31T10:48:27.586Z,8.70
2023-03-31T10:51:17.825Z,7.67
2023-03-31T10:54:06.244Z,5.63
2023-03-31T10:56:56.505Z,9.10
2023-03-31T10:59:54.550Z,5.17
2023-03-31T11:02:42.179Z,5.80
2023-03-31T11:05:29.678Z,6.33
2023-03-31T11:08:23.171Z,5.57
2023-03-31T11:11:19.950Z,6.95
2023-03-31T11:14:18.873Z,6.90
2023-03-31T11:17:11.668Z,5.47
2023-03-31T11:19:59.195Z,7.63
2023-03-31T11:23:01.827Z,11.33
2023-03-31T11:25:49.181Z,21.63
2023-03-31T11:28:55.627Z,5.87
2023-03-31T11:31:56.483Z,4.73
2023-03-31T11:34:59.530Z,9.80
2023-03-31T11:38:07.715Z,3.97
2023-03-31T11:41:18.218Z,3.90
2023-03-31T11:44:06.967Z,4.67
2023-03-31T11:47:01.820Z,4.90
2023-03-31T11:49:52.454Z,3.43
2023-03-31T11:52:41.224Z,3.53
2023-03-31T11:55:30.923Z,5.00
2023-03-31T11:58:23.968Z,2.77
2023-03-31T12:01:20.407Z,2.53
2023-03-31T12:04:13.475Z,3.33
2023-03-31T12:07:09.479Z,4.00
2023-03-31T12:10:15.662Z,2.73
2023-03-31T12:13:15.752Z,2.80
2023-03-31T12:16:06.547Z,3.30
2023-03-31T12:19:14.683Z,4.83
2023-03-31T12:22:06.504Z,3.43
2023-03-31T12:24:54.122Z,3.53
2023-03-31T12:27:42.770Z,5.23
2023-03-31T12:30:34.510Z,4.50
2023-03-31T12:33:33.500Z,3.50
2023-03-31T12:36:21.481Z,4.23
2023-03-31T12:39:27.669Z,6.43
2023-03-31T12:42:34.155Z,5.93
2023-03-31T12:45:31.765Z,4.50
2023-03-31T12:48:19.147Z,2.80
2023-03-31T12:51:15.852Z,5.30
2023-03-31T12:54:16.635Z,9.00
2023-03-31T12:57:15.375Z,4.70
2023-03-31T13:00:11.510Z,5.43
2023-03-31T13:03:17.923Z,5.07
2023-03-31T13:06:06.171Z,3.00
2023-03-31T13:08:56.867Z,3.37
2023-03-31T13:11:50.618Z,5.77
2023-03-31T13:14:39.002Z,4.97
2023-03-31T13:17:28.137Z,5.40
2023-03-31T13:20:17.028Z,3.33
2023-03-31T13:23:06.355Z,3.10
2023-03-31T13:25:59.949Z,3.50
2023-03-31T13:28:47.367Z,5.40
2023-03-31T13:31:54.750Z,2.63
2023-03-31T13:35:01.133Z,3.77
2023-03-31T13:38:04.370Z,3.67
2023-03-31T13:40:56.271Z,9.53
2023-03-31T13:43:56.365Z,3.47
2023-03-31T13:46:51.016Z,5.47
2023-03-31T13:49:44.793Z,2.03
2023-03-31T13:52:37.641Z,4.30
2023-03-31T13:55:32.393Z,3.10
2023-03-31T14:01:14.274Z,2.63
2023-03-31T14:04:23.504Z,2.57
2023-03-31T14:07:17.733Z,3.07
2023-03-31T14:10:07.201Z,3.37
2023-03-31T14:13:05.047Z,3.07
2023-03-31T14:15:54.693Z,3.40
2023-03-31T14:18:46.722Z,5.30
2023-03-31T14:21:46.502Z,4.73
2023-03-31T14:24:44.221Z,5.53
2023-03-31T14:27:32.288Z,4.60
2023-03-31T14:30:27.128Z,2.57
2023-03-31T14:33:21.761Z,7.37
2023-03-31T14:36:16.151Z,6.73
2023-03-31T14:39:05.032Z,2.87
2023-03-31T14:41:56.009Z,4.50
2023-03-31T14:44:46.875Z,5.30
2023-03-31T14:47:35.326Z,5.47
2023-03-31T14:50:22.922Z,4.70
2023-03-31T14:53:17.582Z,4.10
2023-03-31T14:56:11.100Z,3.90
2023-03-31T14:58:58.513Z,5.30
2023-03-31T15:01:46.812Z,2.93
2023-03-31T15:04:44.801Z,3.83
2023-03-31T15:07:32.526Z,5.70
2023-03-31T15:10:21.719Z,4.90
2023-03-31T15:13:10.668Z,6.83
2023-03-31T15:15:58.052Z,7.47
2023-03-31T15:18:46.572Z,9.33
2023-03-31T15:21:37.402Z,23.93
2023-03-31T15:24:25.095Z,21.57
2023-03-31T15:27:36.643Z,24.40
2023-03-31T15:30:26.020Z,4.93
2023-03-31T15:33:19.838Z,6.50
2023-03-31T15:36:08.294Z,6.27
2023-03-31T15:38:57.362Z,9.20
2023-03-31T15:41:45.636Z,7.93
2023-03-31T15:44:46.804Z,8.73
2023-03-31T15:47:38.566Z,7.93
2023-03-31T15:50:29.330Z,8.70
2023-03-31T15:53:35.649Z,5.75
2023-03-31T15:56:38.222Z,8.37
2023-03-31T15:59:34.329Z,9.43
2023-03-31T16:02:27.818Z,10.63
2023-03-31T16:05:47.324Z,6.13
2023-03-31T16:08:44.720Z,4.57
2023-03-31T16:11:41.249Z,4.20
2023-03-31T16:14:34.117Z,4.37
2023-03-31T16:17:33.183Z,2.40
2023-03-31T16:20:25.533Z,6.20
2023-03-31T16:23:23.494Z,3.17
2023-03-31T16:26:11.563Z,3.03
2023-03-31T16:29:00.940Z,3.63
2023-03-31T16:31:49.186Z,2.60
2023-03-31T16:34:51.814Z,5.13
2023-03-31T16:37:39.181Z,4.93
2023-03-31T16:40:26.654Z,4.77
2023-03-31T16:43:17.971Z,4.90
2023-03-31T16:46:05.460Z,3.07
2023-03-31T16:48:53.367Z,3.40
2023-03-31T16:51:40.905Z,3.87
2023-03-31T16:54:28.336Z,4.60
2023-03-31T16:57:16.623Z,2.00
2023-03-31T17:00:04.239Z,3.20
2023-03-31T17:02:52.035Z,6.00
2023-03-31T17:05:41.247Z,4.43
2023-03-31T17:08:28.936Z,2.70
2023-03-31T17:11:16.486Z,2.70
2023-03-31T17:14:05.392Z,3.10
2023-03-31T17:16:53.310Z,3.20
2023-03-31T17:19:40.980Z,2.30
2023-03-31T17:22:28.542Z,1.90
2023-03-31T17:25:16.269Z,4.40
2023-03-31T17:28:06.001Z,2.33
2023-03-31T17:30:53.616Z,3.00
2023-03-31T17:33:41.697Z,3.93
2023-03-31T17:36:29.194Z,3.90
2023-03-31T17:39:16.659Z,4.53
2023-03-31T17:42:04.345Z,6.90
2023-03-31T17:44:53.198Z,4.03
2023-03-31T17:47:41.571Z,2.87
2023-03-31T17:50:29.289Z,3.27
2023-03-31T17:53:17.354Z,3.37
2023-03-31T17:56:04.993Z,4.63
2023-03-31T17:58:52.426Z,3.63
2023-03-31T18:01:39.911Z,4.50
2023-03-31T18:04:27.757Z,3.80
2023-03-31T18:07:17.836Z,3.37
2023-03-31T18:10:05.874Z,3.47
2023-03-31T18:12:55.342Z,2.83
2023-03-31T18:15:52.629Z,8.77
2023-03-31T18:18:40.332Z,2.73
2023-03-31T18:21:28.099Z,3.33
2023-03-31T18:24:16.643Z,3.87
2023-03-31T18:27:04.054Z,2.87
2023-03-31T18:29:51.439Z,3.37
2023-03-31T18:32:39.036Z,3.27
2023-03-31T18:35:27.283Z,6.47
2023-03-31T18:38:16.258Z,4.60
2023-03-31T18:41:03.763Z,5.57
2023-03-31T18:43:52.188Z,3.40
2023-03-31T18:46:39.680Z,4.20
2023-03-31T18:49:27.166Z,2.70
2023-03-31T18:52:15.188Z,7.53
2023-03-31T18:55:02.856Z,5.10
2023-03-31T18:57:50.448Z,4.77
2023-03-31T19:00:37.857Z,3.17
2023-03-31T19:03:26.884Z,3.33
2023-03-31T19:06:16.953Z,5.13
2023-03-31T19:09:04.931Z,4.70
2023-03-31T19:11:53.196Z,6.13
2023-03-31T19:14:41.336Z,8.70
2023-03-31T19:17:28.841Z,6.87
2023-03-31T19:20:16.762Z,7.63
2023-03-31T19:23:04.234Z,10.87
2023-03-31T19:25:53.443Z,14.87
2023-03-31T19:28:40.879Z,7.87
2023-03-31T19:31:28.484Z,12.53
2023-03-31T19:34:16.659Z,10.53
2023-03-31T19:37:04.929Z,11.67
2023-03-31T19:39:52.733Z,4.53
2023-03-31T19:42:41.988Z,4.30
2023-03-31T19:45:29.619Z,5.70
2023-03-31T19:48:18.042Z,4.73
2023-03-31T19:51:07.187Z,5.53
2023-03-31T19:53:54.669Z,4.55
2023-03-31T19:56:42.052Z,5.97
2023-03-31T19:59:29.404Z,4.30
2023-03-31T20:02:17.061Z,6.83
2023-03-31T20:05:04.608Z,4.80
2023-03-31T20:07:51.992Z,4.67
2023-03-31T20:10:40.121Z,5.70
2023-03-31T20:13:27.963Z,6.13
2023-03-31T20:16:18.164Z,7.47
2023-03-31T20:19:06.581Z,6.47
2023-03-31T20:21:54.246Z,7.60
2023-03-31T20:24:41.720Z,7.60
2023-03-31T20:27:29.141Z,5.50
2023-03-31T20:30:16.603Z,5.37
2023-03-31T20:33:04.098Z,6.33
2023-03-31T20:36:03.677Z,8.33
2023-03-31T20:38:52.429Z,7.67
2023-03-31T20:41:40.132Z,6.63
2023-03-31T20:44:27.729Z,7.73
2023-03-31T20:47:15.692Z,7.43
2023-03-31T20:50:08.018Z,5.03
2023-03-31T20:52:55.661Z,6.57
2023-03-31T20:55:43.515Z,7.27
2023-03-31T20:58:31.074Z,6.53
2023-03-31T21:01:19.409Z,6.83
2023-03-31T21:04:08.195Z,6.93
2023-03-31T21:06:55.669Z,6.60
2023-03-31T21:09:43.119Z,6.53
2023-03-31T21:12:39.575Z,6.20
2023-03-31T21:15:26.938Z,5.80
2023-03-31T21:18:16.656Z,7.30
2023-03-31T21:21:05.627Z,8.80
2023-03-31T21:23:53.784Z,8.27
2023-03-31T21:26:41.283Z,6.90
2023-03-31T21:29:29.604Z,7.43
2023-03-31T21:32:17.119Z,10.13
2023-03-31T21:35:05.352Z,6.80
2023-03-31T21:37:52.777Z,6.87
2023-03-31T21:40:40.495Z,7.60
2023-03-31T21:43:28.465Z,7.47
2023-03-31T21:46:19.722Z,5.73
2023-03-31T21:49:07.231Z,11.97
2023-03-31T21:51:55.052Z,8.03
2023-03-31T21:54:42.594Z,10.37
2023-03-31T21:57:30.104Z,9.90
2023-03-31T22:00:18.056Z,8.93
2023-03-31T22:03:22.151Z,9.10
2023-03-31T22:06:13.758Z,9.37
2023-03-31T22:09:01.562Z,9.87
2023-03-31T22:11:48.946Z,7.33
2023-03-31T22:14:37.807Z,8.17
2023-03-31T22:17:25.884Z,9.80
2023-03-31T22:20:13.922Z,10.23
2023-03-31T22:23:01.564Z,10.47
2023-03-31T22:25:49.027Z,12.47
2023-03-31T22:28:36.750Z,7.40
2023-03-31T22:31:26.171Z,9.30
2023-03-31T22:34:13.847Z,9.23
2023-03-31T22:37:01.934Z,7.43
2023-03-31T22:39:49.325Z,9.03
2023-03-31T22:42:36.753Z,6.67
2023-03-31T22:45:24.143Z,11.63
2023-03-31T22:48:11.537Z,7.87
2023-03-31T22:50:59.825Z,11.90
2023-03-31T22:53:54.591Z,10.03
2023-03-31T22:56:42.958Z,8.07
2023-03-31T22:59:31.142Z,9.03
2023-03-31T23:02:18.540Z,12.13
2023-03-31T23:05:06.232Z,9.43
2023-03-31T23:07:53.651Z,8.57
2023-03-31T23:10:41.014Z,9.47
2023-03-31T23:13:28.809Z,9.27
2023-03-31T23:16:26.347Z,9.93
2023-03-31T23:19:13.838Z,10.87
2023-03-31T23:22:02.466Z,15.00
2023-03-31T23:24:49.918Z,12.37
2023-03-31T23:27:37.437Z,15.03
2023-03-31T23:30:24.854Z,10.67
2023-03-31T23:33:12.280Z,15.20
2023-03-31T23:36:03.661Z,12.30
2023-03-31T23:38:52.269Z,11.37
2023-03-31T23:41:39.752Z,12.60
2023-03-31T23:44:27.295Z,11.73
2023-03-31T23:47:14.865Z,11.17
2023-03-31T23:50:02.235Z,13.90
2023-03-31T23:52:49.625Z,14.20
2023-03-31T23:55:37.933Z,12.63
2023-03-31T23:58:26.516Z,14.13
